Time;durP1;ratioP1;P1;durP2;ratioP2;P2;SDS_P1;SDS_P2;PMS_P1;PMS_P2;Temp;Humidity;BMP_temperature;BMP_pressure;BME280_temperature;BME280_humidity;BME280_pressure;Samples;Min_cycle;Max_cycle;Signal;HPM_P1;HPM_P2
2023/05/19 00:00:24;;;;;;;7.85;3.92;;;8.20;99.90;;;;;;5031417;28;20094;-74
2023/05/19 00:02:50;;;;;;;6.78;3.53;;;8.30;99.90;;;;;;4999422;28;20096;-74
2023/05/19 00:05:18;;;;;;;9.40;4.20;;;8.30;99.90;;;;;;5013797;28;21780;-76
2023/05/19 00:07:45;;;;;;;12.77;3.92;;;8.30;99.90;;;;;;5029329;28;20041;-75
2023/05/19 00:10:12;;;;;;;11.32;4.50;;;8.30;99.90;;;;;;5024729;28;20053;-75
2023/05/19 00:12:39;;;;;;;8.32;4.22;;;8.30;99.90;;;;;;5025829;28;20049;-77
2023/05/19 00:15:06;;;;;;;7.10;4.13;;;8.30;99.90;;;;;;5012131;28;20103;-75
2023/05/19 00:17:33;;;;;;;10.48;3.75;;;8.20;99.90;;;;;;5022303;28;20048;-74
2023/05/19 00:19:58;;;;;;;9.48;4.18;;;8.30;99.90;;;;;;5021256;28;20118;-74
2023/05/19 00:22:27;;;;;;;7.93;4.00;;;8.20;99.90;;;;;;5023854;28;20041;-74
2023/05/19 00:24:53;;;;;;;7.32;3.80;;;8.20;99.90;;;;;;5008315;28;20053;-77
2023/05/19 00:27:19;;;;;;;8.93;3.90;;;8.20;99.90;;;;;;4997603;28;20592;-77
2023/05/19 00:29:45;;;;;;;10.15;3.60;;;8.10;99.90;;;;;;4997852;28;20037;-73
2023/05/19 00:32:17;;;;;;;10.70;3.70;;;8.10;99.90;;;;;;5023129;28;20068;-74
2023/05/19 00:34:43;;;;;;;9.27;3.83;;;8.80;99.90;;;;;;5026899;28;20045;-75
2023/05/19 00:37:09;;;;;;;11.65;3.75;;;8.10;99.90;;;;;;5014475;28;20098;-75
2023/05/19 00:39:34;;;;;;;11.10;4.22;;;8.10;99.90;;;;;;5026188;28;20057;-76
2023/05/19 00:42:01;;;;;;;8.50;3.67;;;8.10;99.90;;;;;;5012782;28;20033;-75
2023/05/19 00:44:27;;;;;;;10.23;4.00;;;8.10;99.90;;;;;;5019245;28;20057;-77
2023/05/19 00:46:53;;;;;;;10.48;3.97;;;8.10;99.90;;;;;;5022789;28;20155;-77
2023/05/19 00:49:18;;;;;;;10.23;3.63;;;8.10;99.90;;;;;;5007546;28;20075;-75
2023/05/19 00:51:45;;;;;;;8.43;4.20;;;8.10;99.90;;;;;;5007826;28;20061;-75
2023/05/19 00:54:10;;;;;;;8.82;3.90;;;8.10;99.90;;;;;;5021840;28;20049;-74
2023/05/19 00:56:38;;;;;;;9.40;4.15;;;8.10;99.90;;;;;;5027404;28;20049;-75
2023/05/19 00:59:05;;;;;;;7.85;3.95;;;8.10;99.90;;;;;;5019268;28;20144;-77
2023/05/19 01:01:31;;;;;;;15.35;4.18;;;8.00;99.90;;;;;;5018332;28;20563;-75
2023/05/19 01:03:57;;;;;;;8.35;3.97;;;8.00;99.90;;;;;;5027637;28;20051;-75
2023/05/19 01:06:24;;;;;;;8.90;3.83;;;8.00;99.90;;;;;;5027263;28;20060;-75
2023/05/19 01:08:53;;;;;;;9.20;4.20;;;8.00;99.90;;;;;;5035277;28;20044;-76
2023/05/19 01:11:18;;;;;;;5.75;3.70;;;8.00;99.90;;;;;;5027925;28;20396;-75
2023/05/19 01:13:44;;;;;;;10.70;4.18;;;8.00;99.90;;;;;;5011721;28;20373;-75
2023/05/19 01:16:12;;;;;;;8.70;3.88;;;7.70;99.90;;;;;;5028016;28;20049;-76
2023/05/19 01:19:00;;;;;;;10.23;4.47;;;7.90;99.90;;;;;;5028214;28;20067;-76
2023/05/19 01:22:01;;;;;;;8.20;3.90;;;7.90;99.90;;;;;;5003494;28;20036;-78
2023/05/19 01:24:43;;;;;;;;;;;7.90;99.90;;;;;;5005200;28;20060;-75
2023/05/19 01:27:12;;;;;;;7.68;3.85;;;7.90;99.90;;;;;;5018564;28;19929;-77
2023/05/19 01:30:05;;;;;;;11.80;4.82;;;7.80;99.90;;;;;;5027176;28;20132;-75
2023/05/19 01:32:33;;;;;;;12.00;4.20;;;7.80;99.90;;;;;;5028295;28;20923;-74
2023/05/19 01:35:04;;;;;;;9.65;4.00;;;7.80;99.90;;;;;;5028382;28;20072;-75
2023/05/19 01:37:30;;;;;;;7.38;4.07;;;7.80;99.90;;;;;;5037675;28;20050;-74
2023/05/19 01:39:56;;;;;;;7.45;3.78;;;7.80;99.90;;;;;;5028623;28;20379;-78
2023/05/19 01:42:22;;;;;;;8.40;4.88;;;7.70;99.90;;;;;;5030555;28;20045;-75
2023/05/19 01:44:52;;;;;;;9.50;4.20;;;7.70;99.90;;;;;;5031082;28;20049;-76
2023/05/19 01:47:19;;;;;;;11.05;4.20;;;7.70;99.90;;;;;;5030101;28;20053;-75
2023/05/19 01:49:45;;;;;;;8.23;4.20;;;7.70;99.90;;;;;;5009562;28;20064;-75
2023/05/19 01:52:10;;;;;;;8.73;4.22;;;7.70;99.90;;;;;;5005373;28;20048;-74
2023/05/19 01:54:36;;;;;;;10.15;4.43;;;7.70;99.90;;;;;;5016277;28;20045;-74
2023/05/19 01:57:18;;;;;;;7.90;3.90;;;7.70;99.90;;;;;;5030701;28;20057;-74
2023/05/19 01:59:53;;;;;;;10.32;4.07;;;7.70;99.90;;;;;;5028522;28;20049;-75
2023/05/19 02:02:38;;;;;;;11.90;4.38;;;7.70;99.90;;;;;;5031501;28;20265;-76
2023/05/19 02:05:30;;;;;;;6.50;3.92;;;7.70;99.90;;;;;;5014968;28;20060;-75
2023/05/19 02:08:28;;;;;;;9.05;4.15;;;7.60;99.90;;;;;;5010023;28;20063;-76
2023/05/19 02:11:07;;;;;;;8.95;4.50;;;7.60;99.90;;;;;;5026623;28;20052;-74
2023/05/19 02:13:43;;;;;;;7.63;4.15;;;7.60;99.90;;;;;;5017386;28;20633;-74
2023/05/19 02:16:12;;;;;;;7.50;4.28;;;7.60;99.90;;;;;;5022814;28;20049;-76
2023/05/19 02:18:44;;;;;;;14.77;4.30;;;7.60;99.90;;;;;;5016803;28;20045;-75
2023/05/19 02:21:12;;;;;;;13.15;4.53;;;7.60;99.90;;;;;;5023222;28;20185;-77
2023/05/19 02:23:42;;;;;;;12.15;4.28;;;7.60;99.90;;;;;;5037857;28;20055;-76
2023/05/19 02:26:08;;;;;;;8.50;4.53;;;7.60;99.90;;;;;;5028021;28;20041;-76
2023/05/19 02:28:36;;;;;;;12.73;4.30;;;7.60;99.90;;;;;;5028297;28;20051;-77
2023/05/19 02:31:07;;;;;;;10.45;4.25;;;7.60;99.90;;;;;;5016149;28;20053;-74
2023/05/19 02:33:33;;;;;;;7.82;4.50;;;7.60;99.90;;;;;;5024874;28;20063;-74
2023/05/19 02:35:59;;;;;;;8.80;3.97;;;7.60;99.90;;;;;;5027042;28;21070;-78
2023/05/19 02:38:25;;;;;;;10.23;4.38;;;7.60;99.90;;;;;;5031296;28;20060;-77
2023/05/19 02:40:52;;;;;;;9.02;4.05;;;7.60;99.90;;;;;;5024473;28;20068;-76
2023/05/19 02:43:18;;;;;;;10.15;4.18;;;7.60;99.90;;;;;;5025968;28;20119;-75
2023/05/19 02:45:44;;;;;;;12.95;4.38;;;7.60;99.90;;;;;;5017477;28;20040;-76
2023/05/19 02:48:10;;;;;;;11.13;4.30;;;7.60;99.90;;;;;;5021573;28;20492;-76
2023/05/19 02:50:35;;;;;;;9.43;4.65;;;7.60;99.90;;;;;;5032100;28;20073;-76
2023/05/19 02:53:03;;;;;;;12.55;4.32;;;7.60;99.90;;;;;;5026645;28;20061;-75
2023/05/19 02:55:28;;;;;;;9.80;4.38;;;7.60;99.90;;;;;;5016015;28;20560;-77
2023/05/19 02:57:59;;;;;;;12.18;4.82;;;7.60;99.90;;;;;;5030147;28;20925;-77
2023/05/19 03:00:28;;;;;;;10.13;4.65;;;7.60;99.90;;;;;;5017705;28;20136;-78
2023/05/19 03:02:54;;;;;;;13.77;4.47;;;7.60;99.90;;;;;;5023685;28;20098;-76
2023/05/19 03:05:29;;;;;;;10.80;4.55;;;7.50;99.90;;;;;;5014805;28;20448;-77
2023/05/19 03:07:55;;;;;;;10.65;3.80;;;7.50;99.90;;;;;;5012778;28;20048;-77
2023/05/19 03:10:22;;;;;;;8.20;4.50;;;7.50;99.90;;;;;;5023343;28;20072;-76
2023/05/19 03:12:49;;;;;;;11.93;4.22;;;7.50;99.90;;;;;;5023118;28;20053;-77
2023/05/19 03:15:15;;;;;;;10.55;4.60;;;8.80;99.90;;;;;;5016556;28;20080;-75
2023/05/19 03:17:41;;;;;;;9.05;4.28;;;7.50;99.90;;;;;;5022733;28;20199;-74
2023/05/19 03:20:10;;;;;;;9.25;4.68;;;7.40;99.90;;;;;;5030267;28;20037;-74
2023/05/19 03:22:37;;;;;;;10.68;4.05;;;7.50;99.90;;;;;;5011517;28;21684;-76
2023/05/19 03:25:05;;;;;;;12.43;4.70;;;7.40;99.90;;;;;;5007521;28;20487;-74
2023/05/19 03:27:37;;;;;;;12.30;4.40;;;7.40;99.90;;;;;;5023467;28;20821;-75
2023/05/19 03:30:04;;;;;;;8.30;4.60;;;7.40;99.90;;;;;;5024550;28;20867;-76
2023/05/19 03:32:31;;;;;;;10.10;4.43;;;7.40;99.90;;;;;;5004932;28;20049;-74
2023/05/19 03:35:04;;;;;;;9.32;4.15;;;7.40;99.90;;;;;;5022946;28;20640;-74
2023/05/19 03:37:31;;;;;;;10.60;4.15;;;7.40;99.90;;;;;;4997589;28;20064;-76
2023/05/19 03:39:58;;;;;;;9.65;4.40;;;7.40;99.90;;;;;;4994971;28;20049;-75
2023/05/19 03:42:25;;;;;;;7.85;4.10;;;7.40;99.90;;;;;;5017385;28;20135;-74
2023/05/19 03:44:52;;;;;;;13.88;4.53;;;7.40;99.90;;;;;;5016640;28;20048;-77
2023/05/19 03:47:18;;;;;;;10.63;5.03;;;7.40;99.90;;;;;;5025194;28;20529;-77
2023/05/19 03:49:43;;;;;;;13.15;4.45;;;7.40;99.90;;;;;;4999890;28;20083;-77
2023/05/19 03:52:12;;;;;;;12.55;4.38;;;7.40;99.90;;;;;;5033004;28;20405;-74
2023/05/19 03:54:41;;;;;;;10.60;4.38;;;7.40;99.90;;;;;;5028127;28;20049;-76
2023/05/19 03:57:09;;;;;;;9.18;4.47;;;7.40;99.90;;;;;;5008292;28;20437;-75
2023/05/19 03:59:36;;;;;;;12.50;4.55;;;7.40;99.90;;;;;;5028755;28;20393;-75
2023/05/19 04:02:02;;;;;;;10.20;4.20;;;7.40;99.90;;;;;;5022729;28;20053;-75
2023/05/19 04:04:28;;;;;;;10.82;4.38;;;7.40;99.90;;;;;;5016747;28;20160;-74
2023/05/19 04:06:55;;;;;;;17.30;5.18;;;7.40;99.90;;;;;;5026940;28;20051;-77
2023/05/19 04:09:22;;;;;;;12.23;4.32;;;7.40;99.90;;;;;;5024354;28;20053;-77
2023/05/19 04:11:48;;;;;;;13.23;3.92;;;7.50;99.90;;;;;;5033065;28;20038;-76
2023/05/19 04:14:18;;;;;;;13.32;4.40;;;7.50;99.90;;;;;;5038410;28;22030;-76
2023/05/19 04:16:44;;;;;;;7.32;3.85;;;7.50;99.90;;;;;;5022657;28;20037;-74
2023/05/19 04:19:11;;;;;;;9.68;4.30;;;7.60;99.90;;;;;;5037602;28;20052;-75
2023/05/19 04:21:37;;;;;;;13.75;4.60;;;7.60;99.90;;;;;;5016211;28;20048;-74
2023/05/19 04:24:05;;;;;;;10.00;4.50;;;7.60;99.90;;;;;;5016338;28;20045;-74
2023/05/19 04:26:33;;;;;;;7.88;4.30;;;7.60;99.90;;;;;;5032818;28;20052;-77
2023/05/19 04:29:00;;;;;;;13.45;4.63;;;7.70;99.90;;;;;;4998976;28;20045;-74
2023/05/19 04:31:27;;;;;;;13.27;4.38;;;7.70;99.90;;;;;;5026563;28;20056;-76
2023/05/19 04:33:53;;;;;;;10.90;4.60;;;7.40;99.90;;;;;;5022534;28;20852;-77
2023/05/19 04:36:20;;;;;;;8.50;4.28;;;7.80;99.90;;;;;;5024558;28;20099;-76
2023/05/19 04:38:48;;;;;;;11.85;4.60;;;7.80;99.90;;;;;;5015055;28;20037;-74
2023/05/19 04:41:15;;;;;;;9.45;4.13;;;7.80;99.90;;;;;;5025640;28;20087;-74
2023/05/19 04:43:43;;;;;;;9.73;4.10;;;7.80;99.90;;;;;;5024992;28;20087;-76
2023/05/19 04:46:10;;;;;;;11.18;4.30;;;7.90;99.90;;;;;;5031881;28;20056;-75
2023/05/19 04:48:36;;;;;;;14.48;4.80;;;7.90;99.90;;;;;;5029146;28;20060;-74
2023/05/19 04:51:02;;;;;;;10.00;4.57;;;8.00;99.90;;;;;;5014994;28;20045;-75
2023/05/19 04:53:31;;;;;;;11.07;4.28;;;8.00;99.90;;;;;;5038779;28;20888;-75
2023/05/19 04:56:01;;;;;;;13.85;4.57;;;8.10;99.90;;;;;;5008871;28;20041;-76
2023/05/19 04:58:27;;;;;;;10.85;4.10;;;8.10;99.90;;;;;;5026633;28;20041;-76
2023/05/19 05:00:57;;;;;;;10.98;4.35;;;8.20;99.90;;;;;;5014993;28;20080;-76
2023/05/19 05:03:23;;;;;;;9.95;4.25;;;8.20;99.90;;;;;;5022925;28;20142;-76
2023/05/19 05:05:50;;;;;;;10.90;4.63;;;8.30;99.90;;;;;;5044552;28;20072;-76
2023/05/19 05:08:21;;;;;;;12.05;4.93;;;8.30;99.90;;;;;;4997935;28;20057;-74
2023/05/19 05:10:49;;;;;;;13.90;4.57;;;8.40;99.90;;;;;;5023689;28;20040;-75
2023/05/19 05:13:15;;;;;;;13.57;4.43;;;8.50;99.90;;;;;;5040009;28;20550;-75
2023/05/19 05:15:41;;;;;;;16.08;4.70;;;8.50;99.90;;;;;;5014883;28;21009;-74
2023/05/19 05:18:07;;;;;;;15.02;4.43;;;8.60;99.90;;;;;;5023243;28;20041;-75
2023/05/19 05:20:35;;;;;;;10.45;4.35;;;8.60;99.90;;;;;;4993882;28;20040;-75
2023/05/19 05:23:14;;;;;;;11.60;4.80;;;8.70;99.90;;;;;;5025995;28;20615;-77
2023/05/19 05:25:41;;;;;;;14.35;4.72;;;8.70;99.90;;;;;;5031493;28;20053;-77
2023/05/19 05:28:07;;;;;;;14.02;4.47;;;8.80;99.90;;;;;;5032090;28;20041;-76
2023/05/19 05:30:33;;;;;;;9.70;5.35;;;8.90;99.90;;;;;;4996860;28;20040;-75
2023/05/19 05:33:00;;;;;;;11.10;4.50;;;8.70;99.90;;;;;;5012295;28;20037;-75
2023/05/19 05:35:27;;;;;;;12.90;4.88;;;9.10;99.90;;;;;;5025138;28;20048;-75
2023/05/19 05:37:53;;;;;;;17.30;5.00;;;9.10;99.90;;;;;;5029603;28;20048;-76
2023/05/19 05:40:25;;;;;;;12.93;5.28;;;9.30;99.90;;;;;;5021617;28;20088;-77
2023/05/19 05:42:50;;;;;;;10.80;4.68;;;9.40;99.90;;;;;;5039571;28;20049;-78
2023/05/19 05:45:16;;;;;;;15.30;4.63;;;9.50;99.90;;;;;;5014912;28;20041;-76
2023/05/19 05:47:45;;;;;;;14.32;5.22;;;9.60;99.90;;;;;;5030469;28;20500;-76
2023/05/19 05:50:12;;;;;;;14.23;4.90;;;9.80;99.90;;;;;;5040275;28;20044;-75
2023/05/19 05:52:40;;;;;;;13.32;5.25;;;9.90;99.90;;;;;;4996807;28;20080;-76
2023/05/19 05:55:06;;;;;;;14.20;5.40;;;9.90;99.90;;;;;;5015161;28;20033;-75
2023/05/19 05:57:34;;;;;;;15.43;4.97;;;10.10;99.90;;;;;;5016081;28;20045;-75
2023/05/19 06:00:00;;;;;;;15.20;5.82;;;10.20;99.90;;;;;;5016050;28;20051;-77
2023/05/19 06:02:27;;;;;;;18.75;5.22;;;10.30;99.90;;;;;;5030616;28;20049;-76
2023/05/19 06:04:53;;;;;;;13.40;5.13;;;10.50;99.90;;;;;;5018046;28;20049;-75
2023/05/19 06:07:20;;;;;;;15.40;5.82;;;10.50;99.90;;;;;;5037777;28;21184;-74
2023/05/19 06:09:49;;;;;;;18.48;6.00;;;10.70;99.90;;;;;;5020768;28;20057;-74
2023/05/19 06:12:14;;;;;;;15.80;5.35;;;10.80;99.90;;;;;;5022431;28;20327;-76
2023/05/19 06:14:41;;;;;;;15.70;5.25;;;11.00;99.90;;;;;;5017020;28;20578;-75
2023/05/19 06:17:08;;;;;;;14.80;5.65;;;11.10;99.90;;;;;;5028229;28;20144;-76
2023/05/19 06:19:34;;;;;;;11.15;5.18;;;11.20;99.90;;;;;;5014184;28;20045;-75
2023/05/19 06:22:00;;;;;;;10.60;5.05;;;11.40;99.90;;;;;;5002497;28;20049;-77
2023/05/19 06:24:34;;;;;;;14.50;4.90;;;11.60;99.90;;;;;;5019290;28;20722;-76
2023/05/19 06:27:00;;;;;;;10.60;4.55;;;11.80;99.90;;;;;;5022456;28;20050;-74
2023/05/19 06:29:26;;;;;;;11.15;4.57;;;11.90;99.90;;;;;;5009537;28;20060;-76
2023/05/19 06:31:55;;;;;;;12.13;4.43;;;12.10;99.90;;;;;;5035725;28;20095;-75
2023/05/19 06:34:22;;;;;;;11.50;4.40;;;12.20;99.90;;;;;;5021991;28;20041;-78
2023/05/19 06:36:51;;;;;;;9.27;4.68;;;12.30;99.90;;;;;;4990404;28;20053;-75
2023/05/19 06:39:18;;;;;;;12.52;4.70;;;12.50;99.90;;;;;;5039198;28;20089;-77
2023/05/19 06:41:43;;;;;;;12.07;4.13;;;12.60;99.90;;;;;;5017478;28;20191;-75
2023/05/19 06:44:10;;;;;;;11.15;4.60;;;12.80;99.90;;;;;;5015685;28;20487;-76
2023/05/19 06:46:36;;;;;;;8.25;3.95;;;13.00;99.90;;;;;;5014699;28;20056;-75
2023/05/19 06:49:02;;;;;;;11.00;4.50;;;13.20;99.90;;;;;;5032669;28;20738;-78
2023/05/19 06:51:28;;;;;;;10.90;4.30;;;13.40;99.90;;;;;;5007432;28;20412;-74
2023/05/19 06:53:55;;;;;;;9.90;4.43;;;13.60;99.90;;;;;;5010950;28;20060;-75
2023/05/19 06:56:21;;;;;;;13.50;4.65;;;13.90;99.90;;;;;;5012879;28;20041;-76
2023/05/19 06:58:47;;;;;;;12.20;4.22;;;14.00;99.90;;;;;;5009863;28;20045;-75
2023/05/19 07:01:13;;;;;;;11.07;3.97;;;14.10;99.90;;;;;;5010353;28;20118;-74
2023/05/19 07:03:39;;;;;;;8.77;3.83;;;14.20;99.90;;;;;;4996616;28;20049;-79
2023/05/19 07:06:05;;;;;;;7.25;3.15;;;14.40;99.90;;;;;;4997833;28;20049;-76
2023/05/19 07:08:31;;;;;;;7.63;3.65;;;14.60;99.90;;;;;;5023704;28;20056;-77
2023/05/19 07:10:57;;;;;;;11.13;4.60;;;14.80;99.90;;;;;;5024144;28;20830;-75
2023/05/19 07:13:24;;;;;;;7.13;3.20;;;15.10;99.90;;;;;;5025849;28;20174;-76
2023/05/19 07:15:54;;;;;;;8.88;3.55;;;15.30;99.90;;;;;;5028143;28;20504;-76
2023/05/19 07:18:21;;;;;;;9.07;3.63;;;15.50;99.90;;;;;;5015203;28;20060;-74
2023/05/19 07:20:47;;;;;;;9.50;4.15;;;15.70;99.90;;;;;;5022737;28;20049;-76
2023/05/19 07:23:13;;;;;;;9.70;3.63;;;16.00;99.90;;;;;;5021619;28;20507;-78
2023/05/19 07:25:39;;;;;;;10.45;3.63;;;16.30;99.90;;;;;;5020937;28;20052;-76
2023/05/19 07:28:05;;;;;;;10.18;3.10;;;16.50;99.90;;;;;;5021314;28;20045;-77
2023/05/19 07:30:40;;;;;;;7.57;3.00;;;16.70;99.90;;;;;;5030137;28;20042;-77
2023/05/19 07:33:05;;;;;;;8.18;3.33;;;16.90;99.90;;;;;;5021713;28;20515;-76
2023/05/19 07:35:31;;;;;;;7.20;3.13;;;17.10;99.90;;;;;;4999069;28;20049;-77
2023/05/19 07:37:57;;;;;;;9.50;3.63;;;17.30;99.90;;;;;;5010675;28;20045;-75
2023/05/19 07:40:25;;;;;;;8.65;3.00;;;17.50;99.90;;;;;;5011239;28;20081;-78
2023/05/19 07:42:51;;;;;;;8.60;3.70;;;17.80;99.90;;;;;;5027760;28;20163;-78
2023/05/19 07:45:17;;;;;;;9.65;3.45;;;18.00;99.90;;;;;;5029131;28;20124;-76
2023/05/19 07:47:43;;;;;;;7.70;2.63;;;17.60;99.90;;;;;;5022793;28;20136;-76
2023/05/19 07:50:08;;;;;;;7.95;2.70;;;18.40;99.90;;;;;;5025525;28;20182;-76
2023/05/19 07:52:35;;;;;;;7.03;2.67;;;18.60;99.90;;;;;;5011875;28;20052;-77
2023/05/19 07:55:01;;;;;;;6.40;3.22;;;18.80;99.90;;;;;;5024362;28;20037;-74
2023/05/19 07:57:31;;;;;;;6.45;2.70;;;18.90;99.90;;;;;;5026156;28;20049;-76
2023/05/19 07:59:56;;;;;;;6.80;3.00;;;19.10;99.90;;;;;;5012325;28;20045;-75
2023/05/19 08:02:22;;;;;;;5.43;2.55;;;19.20;99.90;;;;;;5023606;28;20041;-78
2023/05/19 08:04:49;;;;;;;8.48;2.78;;;19.40;99.90;;;;;;5045131;28;20126;-76
2023/05/19 08:07:22;;;;;;;7.50;2.78;;;19.50;99.90;;;;;;5013876;28;20134;-80
2023/05/19 08:09:48;;;;;;;5.70;2.47;;;19.50;99.90;;;;;;5012611;28;20898;-75
2023/05/19 08:12:14;;;;;;;8.10;2.90;;;19.70;99.90;;;;;;5018666;28;20100;-75
2023/05/19 08:14:39;;;;;;;7.20;2.75;;;19.90;99.90;;;;;;5021679;28;20411;-76
2023/05/19 08:17:05;;;;;;;7.80;2.92;;;20.00;99.90;;;;;;4994178;28;20059;-78
2023/05/19 08:19:34;;;;;;;8.98;3.00;;;20.20;99.90;;;;;;5029284;28;20378;-78
2023/05/19 08:22:00;;;;;;;9.27;3.38;;;20.20;99.90;;;;;;5021976;28;20041;-75
2023/05/19 08:24:31;;;;;;;5.93;2.65;;;20.40;99.90;;;;;;5018716;28;20059;-76
2023/05/19 08:26:57;;;;;;;6.82;2.38;;;20.40;99.40;;;;;;5025905;28;20461;-76
2023/05/19 08:29:23;;;;;;;6.22;2.83;;;20.70;99.40;;;;;;5027742;28;20089;-76
2023/05/19 08:31:51;;;;;;;7.43;2.60;;;20.90;98.80;;;;;;5023794;28;20045;-76
2023/05/19 08:34:18;;;;;;;5.68;2.92;;;21.10;98.10;;;;;;4995518;28;20053;-74
2023/05/19 08:36:44;;;;;;;6.00;2.60;;;21.20;97.40;;;;;;5014548;28;20201;-75
2023/05/19 08:39:10;;;;;;;56.83;6.30;;;21.70;96.70;;;;;;5010997;28;20045;-78
2023/05/19 08:41:36;;;;;;;42.28;5.03;;;21.50;96.20;;;;;;4992146;28;20059;-75
2023/05/19 08:44:03;;;;;;;10.23;2.58;;;21.50;95.40;;;;;;5017687;28;20053;-75
2023/05/19 08:46:30;;;;;;;9.10;2.65;;;21.50;95.10;;;;;;5010111;28;20049;-75
2023/05/19 08:49:08;;;;;;;8.57;2.53;;;21.60;94.80;;;;;;5023944;28;20450;-75
2023/05/19 08:52:09;;;;;;;7.82;2.75;;;21.60;93.60;;;;;;5011550;28;20060;-75
2023/05/19 08:55:08;;;;;;;7.95;2.85;;;21.70;92.30;;;;;;5020640;28;20496;-75
2023/05/19 08:57:35;;;;;;;7.00;2.33;;;21.90;92.20;;;;;;5034167;28;20045;-74
2023/05/19 09:00:13;;;;;;;8.13;2.80;;;22.10;93.30;;;;;;4996603;28;20069;-75
2023/05/19 09:02:44;;;;;;;5.22;2.10;;;22.20;92.50;;;;;;5025971;28;20072;-74
2023/05/19 09:05:12;;;;;;;7.00;2.58;;;22.40;92.30;;;;;;5018454;28;20053;-73
2023/05/19 09:07:41;;;;;;;5.80;2.33;;;22.60;91.80;;;;;;5014427;28;20118;-75
2023/05/19 09:10:07;;;;;;;6.18;2.28;;;22.70;90.60;;;;;;5026164;28;20071;-74
2023/05/19 09:12:46;;;;;;;6.07;2.63;;;22.70;90.10;;;;;;5018871;28;20102;-74
2023/05/19 09:15:15;;;;;;;6.60;2.28;;;22.80;88.70;;;;;;5026519;28;20044;-73
2023/05/19 09:17:41;;;;;;;6.18;2.47;;;23.00;87.90;;;;;;5028685;28;20227;-73
2023/05/19 09:20:10;;;;;;;7.35;2.90;;;23.00;86.90;;;;;;5019972;28;20045;-74
2023/05/19 09:22:46;;;;;;;5.05;2.38;;;23.10;85.80;;;;;;5021532;28;20122;-75
2023/05/19 09:25:22;;;;;;;5.97;2.47;;;23.20;83.70;;;;;;5019111;28;20045;-74
2023/05/19 09:27:49;;;;;;;6.90;2.65;;;23.40;84.30;;;;;;5027849;28;20071;-74
2023/05/19 09:30:18;;;;;;;6.82;2.40;;;23.60;86.20;;;;;;5031415;28;20041;-74
2023/05/19 09:32:45;;;;;;;5.50;2.50;;;23.80;83.30;;;;;;5035456;28;20141;-77
2023/05/19 09:35:19;;;;;;;6.10;2.67;;;23.90;82.80;;;;;;5017335;28;20127;-74
2023/05/19 09:37:45;;;;;;;5.18;3.13;;;24.10;82.20;;;;;;5021872;28;20051;-75
2023/05/19 09:40:14;;;;;;;5.05;2.47;;;24.80;81.10;;;;;;5020331;28;20483;-80
2023/05/19 09:42:41;;;;;;;6.38;2.80;;;24.30;80.10;;;;;;5020303;28;20171;-75
2023/05/19 09:45:08;;;;;;;5.18;2.50;;;24.30;79.00;;;;;;5018866;28;20080;-73
2023/05/19 09:47:38;;;;;;;6.45;2.78;;;24.40;78.60;;;;;;5021127;28;21046;-75
2023/05/19 09:50:12;;;;;;;8.48;3.05;;;24.50;78.70;;;;;;5016303;28;20049;-77
2023/05/19 09:52:45;;;;;;;8.27;2.83;;;24.60;78.10;;;;;;5029496;28;20113;-76
2023/05/19 09:55:12;;;;;;;5.18;2.72;;;24.60;77.90;;;;;;5027474;28;20072;-76
2023/05/19 09:57:39;;;;;;;5.30;3.00;;;24.80;76.90;;;;;;5030274;28;20049;-77
2023/05/19 10:00:18;;;;;;;7.72;2.90;;;24.90;76.70;;;;;;5027421;28;20132;-76
2023/05/19 10:02:49;;;;;;;6.07;2.75;;;25.10;75.80;;;;;;5028921;28;21195;-76
2023/05/19 10:05:20;;;;;;;4.25;2.72;;;25.30;76.20;;;;;;5016318;28;20057;-75
2023/05/19 10:07:51;;;;;;;7.30;2.70;;;25.60;73.30;;;;;;5029727;28;20068;-75
2023/05/19 10:10:20;;;;;;;6.78;2.78;;;25.70;74.40;;;;;;5026721;28;20081;-75
2023/05/19 10:12:47;;;;;;;5.63;2.90;;;25.80;73.20;;;;;;5026871;28;20073;-75
2023/05/19 10:15:15;;;;;;;5.25;2.40;;;25.90;72.80;;;;;;5007137;28;20167;-78
2023/05/19 10:17:43;;;;;;;7.15;3.00;;;26.00;71.50;;;;;;5028466;28;20099;-75
2023/05/19 10:20:14;;;;;;;6.80;2.55;;;26.00;71.30;;;;;;5029505;28;20067;-75
2023/05/19 10:22:41;;;;;;;6.47;2.90;;;25.70;70.70;;;;;;5028312;28;20053;-78
2023/05/19 10:25:09;;;;;;;6.00;3.00;;;25.80;71.40;;;;;;5023347;28;20042;-75
2023/05/19 10:27:39;;;;;;;5.18;2.20;;;25.80;71.00;;;;;;5014726;28;20057;-77
2023/05/19 10:30:13;;;;;;;8.93;3.08;;;26.00;70.30;;;;;;5020107;28;20052;-76
2023/05/19 10:32:43;;;;;;;7.15;3.05;;;26.20;69.60;;;;;;5011386;28;20056;-78
2023/05/19 10:35:30;;;;;;;5.70;2.90;;;26.40;70.30;;;;;;5023703;28;20046;-77
2023/05/19 10:37:59;;;;;;;5.40;2.83;;;26.60;69.60;;;;;;5022978;28;20051;-76
2023/05/19 10:40:28;;;;;;;5.93;2.53;;;26.70;69.30;;;;;;5023784;28;20587;-77
2023/05/19 10:43:20;;;;;;;7.22;3.05;;;26.80;69.20;;;;;;5011959;28;20037;-77
2023/05/19 10:45:54;;;;;;;5.78;3.10;;;26.90;67.10;;;;;;5015446;28;20136;-78
2023/05/19 10:48:23;;;;;;;7.13;3.22;;;27.10;68.50;;;;;;5034490;28;20132;-75
2023/05/19 10:50:53;;;;;;;5.75;2.72;;;27.30;68.20;;;;;;4995674;28;20570;-75
2023/05/19 10:53:22;;;;;;;5.70;3.00;;;27.00;66.90;;;;;;5027916;28;20063;-78
2023/05/19 10:55:57;;;;;;;8.23;3.00;;;27.00;67.30;;;;;;5011900;28;20045;-75
2023/05/19 10:58:48;;;;;;;5.97;2.95;;;27.20;65.60;;;;;;5031185;28;20341;-76
2023/05/19 11:01:19;;;;;;;5.63;3.08;;;27.30;64.90;;;;;;5019140;28;20488;-75
2023/05/19 11:03:52;;;;;;;6.57;2.67;;;27.40;63.60;;;;;;5027586;28;20156;-76
2023/05/19 11:06:25;;;;;;;6.22;2.45;;;27.40;63.80;;;;;;5028713;28;20405;-78
2023/05/19 11:08:53;;;;;;;4.45;2.35;;;27.40;63.00;;;;;;5006956;28;20045;-77
2023/05/19 11:11:22;;;;;;;6.95;2.78;;;27.60;63.80;;;;;;5031389;28;20045;-77
2023/05/19 11:13:55;;;;;;;8.38;2.88;;;27.70;63.20;;;;;;5011687;28;20045;-76
2023/05/19 11:16:28;;;;;;;4.90;2.63;;;27.90;62.00;;;;;;5012402;28;20049;-77
2023/05/19 11:19:00;;;;;;;9.13;3.05;;;28.00;62.80;;;;;;5021746;28;20194;-75
2023/05/19 11:21:53;;;;;;;10.80;3.08;;;27.90;62.70;;;;;;5028261;28;20128;-74
2023/05/19 11:24:36;;;;;;;6.45;2.42;;;27.70;63.50;;;;;;5028746;28;21101;-77
2023/05/19 11:27:18;;;;;;;7.47;3.00;;;27.40;62.00;;;;;;5024802;28;20306;-77
2023/05/19 11:29:44;;;;;;;6.65;2.75;;;27.10;63.50;;;;;;5010612;28;20392;-77
2023/05/19 11:32:11;;;;;;;9.63;3.60;;;26.90;65.10;;;;;;4996927;28;20048;-75
2023/05/19 11:34:37;;;;;;;9.85;2.80;;;26.80;65.00;;;;;;5035086;28;20048;-76
2023/05/19 11:37:07;;;;;;;4.82;2.70;;;26.90;65.10;;;;;;5030648;28;20098;-76
2023/05/19 11:39:46;;;;;;;6.25;2.53;;;27.00;65.30;;;;;;5041999;28;20083;-76
2023/05/19 11:42:31;;;;;;;5.90;2.40;;;26.90;64.90;;;;;;5032874;28;20067;-78
2023/05/19 11:44:58;;;;;;;7.68;2.85;;;26.90;64.70;;;;;;5037833;28;20055;-76
2023/05/19 11:47:24;;;;;;;8.02;2.50;;;27.00;64.60;;;;;;5039221;28;20041;-76
2023/05/19 11:49:52;;;;;;;6.85;2.90;;;26.90;64.50;;;;;;5036249;28;20079;-76
2023/05/19 11:52:22;;;;;;;5.25;2.50;;;26.70;64.60;;;;;;5019466;28;20057;-75
2023/05/19 11:54:49;;;;;;;7.35;2.60;;;26.80;64.50;;;;;;5024688;28;20079;-75
2023/05/19 11:57:23;;;;;;;9.95;2.90;;;26.90;64.40;;;;;;5035386;28;20040;-77
2023/05/19 11:59:51;;;;;;;5.05;2.13;;;27.00;64.00;;;;;;5026811;28;20530;-75
2023/05/19 12:02:26;;;;;;;9.00;3.22;;;27.10;63.90;;;;;;5015626;28;20278;-77
2023/05/19 12:04:54;;;;;;;4.95;2.17;;;27.10;63.60;;;;;;5014314;28;21005;-76
2023/05/19 12:07:23;;;;;;;5.53;2.10;;;27.20;64.20;;;;;;5018835;28;20118;-77
2023/05/19 12:09:50;;;;;;;6.40;2.80;;;27.40;64.10;;;;;;5028744;28;20124;-78
2023/05/19 12:12:23;;;;;;;6.68;2.50;;;27.30;63.70;;;;;;5028746;28;20071;-78
2023/05/19 12:14:50;;;;;;;9.57;2.55;;;27.30;64.00;;;;;;5032699;28;20049;-77
2023/05/19 12:17:22;;;;;;;7.53;2.35;;;27.30;64.60;;;;;;5023006;28;20048;-76
2023/05/19 12:19:49;;;;;;;9.50;2.53;;;27.20;64.40;;;;;;5034892;28;20060;-76
2023/05/19 12:22:16;;;;;;;8.63;2.50;;;27.10;64.60;;;;;;5000854;28;20037;-77
2023/05/19 12:24:43;;;;;;;5.78;2.22;;;27.00;64.30;;;;;;5032498;28;20049;-78
2023/05/19 12:27:28;;;;;;;9.40;2.65;;;27.10;64.40;;;;;;5030218;28;20802;-78
2023/05/19 12:29:58;;;;;;;7.30;2.25;;;27.00;62.70;;;;;;5018013;28;20144;-77
2023/05/19 12:32:29;;;;;;;11.73;2.40;;;27.00;64.00;;;;;;5001210;28;20107;-77
2023/05/19 12:34:56;;;;;;;7.28;2.38;;;26.90;64.10;;;;;;5026807;28;20045;-77
2023/05/19 12:37:25;;;;;;;7.55;2.67;;;26.80;64.00;;;;;;5027340;28;20048;-77
2023/05/19 12:39:54;;;;;;;5.90;2.45;;;26.70;62.80;;;;;;5037103;28;20140;-79
2023/05/19 12:42:19;;;;;;;9.18;2.83;;;26.60;62.90;;;;;;5034457;28;20077;-77
2023/05/19 12:44:48;;;;;;;7.60;2.60;;;26.50;63.50;;;;;;5028032;28;20536;-77
2023/05/19 12:47:16;;;;;;;9.73;2.30;;;26.40;62.20;;;;;;5032492;28;20044;-78
2023/05/19 12:50:19;;;;;;;6.13;2.35;;;26.30;61.60;;;;;;5016749;28;20062;-76
2023/05/19 12:52:47;;;;;;;6.00;1.95;;;26.10;60.70;;;;;;5031291;28;20063;-77
2023/05/19 12:55:15;;;;;;;6.57;2.30;;;25.90;62.70;;;;;;5034994;28;20076;-77
2023/05/19 12:57:45;;;;;;;7.85;2.63;;;25.90;61.90;;;;;;5030240;28;20340;-77